sensor_id;sensor_type;location;lat;lon;timestamp;pressure;altitude;pressure_sealevel;temperature;humidity
33845;BME280;20145;43.118;25.694;2023-04-26T00:01:58;98500.66;;;12.43;97.91
33845;BME280;20145;43.118;25.694;2023-04-26T00:04:25;98505.84;;;12.43;98.10
33845;BME280;20145;43.118;25.694;2023-04-26T00:06:53;98509.06;;;12.49;97.73
33845;BME280;20145;43.118;25.694;2023-04-26T00:09:19;98494.22;;;12.30;98.54
33845;BME280;20145;43.118;25.694;2023-04-26T00:11:45;98484.19;;;12.20;98.65
33845;BME280;20145;43.118;25.694;2023-04-26T00:14:11;98494.19;;;12.31;99.53
33845;BME280;20145;43.118;25.694;2023-04-26T00:16:36;98494.31;;;12.26;99.89
33845;BME280;20145;43.118;25.694;2023-04-26T00:19:02;98489.31;;;12.22;100.00
33845;BME280;20145;43.118;25.694;2023-04-26T00:21:28;98490.91;;;12.26;98.88
33845;BME280;20145;43.118;25.694;2023-04-26T00:23:54;98489.25;;;12.23;99.68
33845;BME280;20145;43.118;25.694;2023-04-26T00:26:20;98483.28;;;12.21;98.86
33845;BME280;20145;43.118;25.694;2023-04-26T00:28:45;98487.59;;;12.22;99.65
33845;BME280;20145;43.118;25.694;2023-04-26T00:31:15;98484.88;;;12.25;99.34
33845;BME280;20145;43.118;25.694;2023-04-26T00:33:41;98473.38;;;12.09;100.00
33845;BME280;20145;43.118;25.694;2023-04-26T00:36:06;98482.38;;;11.97;100.00
33845;BME280;20145;43.118;25.694;2023-04-26T00:38:32;98482.19;;;12.03;100.00
33845;BME280;20145;43.118;25.694;2023-04-26T00:40:57;98491.19;;;11.92;100.00
33845;BME280;20145;43.118;25.694;2023-04-26T00:43:23;98490.38;;;11.90;100.00
33845;BME280;20145;43.118;25.694;2023-04-26T00:45:48;98482.53;;;11.93;100.00
33845;BME280;20145;43.118;25.694;2023-04-26T00:48:14;98482.63;;;11.90;100.00
33845;BME280;20145;43.118;25.694;2023-04-26T00:50:40;98469.81;;;11.87;100.00
33845;BME280;20145;43.118;25.694;2023-04-26T00:53:07;98476.72;;;11.86;100.00
33845;BME280;20145;43.118;25.694;2023-04-26T00:55:33;98479.13;;;11.91;100.00
33845;BME280;20145;43.118;25.694;2023-04-26T00:57:59;98475.59;;;11.93;100.00
33845;BME280;20145;43.118;25.694;2023-04-26T01:00:25;98477.66;;;11.82;100.00
33845;BME280;20145;43.118;25.694;2023-04-26T01:02:52;98471.84;;;11.75;100.00
33845;BME280;20145;43.118;25.694;2023-04-26T01:05:17;98477.88;;;11.76;100.00
33845;BME280;20145;43.118;25.694;2023-04-26T01:07:43;98478.41;;;11.87;100.00
33845;BME280;20145;43.118;25.694;2023-04-26T01:10:09;98477.44;;;11.90;100.00
33845;BME280;20145;43.118;25.694;2023-04-26T01:12:37;98476.72;;;11.84;100.00
33845;BME280;20145;43.118;25.694;2023-04-26T01:15:04;98471.56;;;11.86;100.00
33845;BME280;20145;43.118;25.694;2023-04-26T01:17:30;98463.00;;;11.82;100.00
33845;BME280;20145;43.118;25.694;2023-04-26T01:19:55;98473.25;;;11.86;100.00
33845;BME280;20145;43.118;25.694;2023-04-26T01:22:21;98470.41;;;11.95;100.00
33845;BME280;20145;43.118;25.694;2023-04-26T01:24:49;98471.09;;;12.00;100.00
33845;BME280;20145;43.118;25.694;2023-04-26T01:27:15;98463.34;;;12.00;100.00
33845;BME280;20145;43.118;25.694;2023-04-26T01:29:41;98463.91;;;12.08;100.00
33845;BME280;20145;43.118;25.694;2023-04-26T01:32:07;98453.72;;;12.03;100.00
33845;BME280;20145;43.118;25.694;2023-04-26T01:34:33;98455.41;;;12.04;100.00
33845;BME280;20145;43.118;25.694;2023-04-26T01:36:59;98458.06;;;12.03;100.00
33845;BME280;20145;43.118;25.694;2023-04-26T01:39:26;98456.06;;;12.11;100.00
33845;BME280;20145;43.118;25.694;2023-04-26T01:41:52;98461.91;;;12.16;100.00
33845;BME280;20145;43.118;25.694;2023-04-26T01:44:18;98431.72;;;11.92;100.00
33845;BME280;20145;43.118;25.694;2023-04-26T01:46:43;98452.69;;;12.09;100.00
33845;BME280;20145;43.118;25.694;2023-04-26T01:49:09;98443.28;;;12.07;100.00
33845;BME280;20145;43.118;25.694;2023-04-26T01:51:34;98441.66;;;12.04;100.00
33845;BME280;20145;43.118;25.694;2023-04-26T01:54:01;98448.38;;;12.08;100.00
33845;BME280;20145;43.118;25.694;2023-04-26T01:56:26;98444.19;;;12.05;100.00
33845;BME280;20145;43.118;25.694;2023-04-26T01:58:52;98448.59;;;12.02;100.00
33845;BME280;20145;43.118;25.694;2023-04-26T02:01:19;98424.75;;;11.94;100.00
33845;BME280;20145;43.118;25.694;2023-04-26T02:03:45;98433.88;;;11.77;100.00
33845;BME280;20145;43.118;25.694;2023-04-26T02:06:11;98424.47;;;11.75;100.00
33845;BME280;20145;43.118;25.694;2023-04-26T02:08:36;98429.47;;;11.81;100.00
33845;BME280;20145;43.118;25.694;2023-04-26T02:11:02;98432.69;;;11.89;100.00
33845;BME280;20145;43.118;25.694;2023-04-26T02:13:28;98434.34;;;11.90;100.00
33845;BME280;20145;43.118;25.694;2023-04-26T02:15:54;98415.47;;;11.88;100.00
33845;BME280;20145;43.118;25.694;2023-04-26T02:18:20;98427.19;;;11.98;100.00
33845;BME280;20145;43.118;25.694;2023-04-26T02:20:47;98419.69;;;11.91;100.00
33845;BME280;20145;43.118;25.694;2023-04-26T02:23:12;98432.69;;;11.89;100.00
33845;BME280;20145;43.118;25.694;2023-04-26T02:25:38;98426.47;;;11.95;100.00
33845;BME280;20145;43.118;25.694;2023-04-26T02:28:06;98426.34;;;11.98;100.00
33845;BME280;20145;43.118;25.694;2023-04-26T02:30:32;98422.66;;;12.05;99.29
33845;BME280;20145;43.118;25.694;2023-04-26T02:32:58;98402.41;;;11.93;99.52
33845;BME280;20145;43.118;25.694;2023-04-26T02:35:23;98420.03;;;12.07;99.20
33845;BME280;20145;43.118;25.694;2023-04-26T02:37:49;98425.91;;;12.10;98.91
33845;BME280;20145;43.118;25.694;2023-04-26T02:40:17;98427.09;;;12.01;98.17
33845;BME280;20145;43.118;25.694;2023-04-26T02:42:43;98430.41;;;12.05;97.33
33845;BME280;20145;43.118;25.694;2023-04-26T02:45:09;98421.81;;;12.04;97.19
33845;BME280;20145;43.118;25.694;2023-04-26T02:47:35;98422.34;;;12.14;97.30
33845;BME280;20145;43.118;25.694;2023-04-26T02:50:04;98428.34;;;12.15;96.76
33845;BME280;20145;43.118;25.694;2023-04-26T02:52:32;98424.28;;;12.08;96.60
33845;BME280;20145;43.118;25.694;2023-04-26T02:54:57;98423.78;;;12.23;96.71
33845;BME280;20145;43.118;25.694;2023-04-26T02:57:23;98422.13;;;12.20;95.90
33845;BME280;20145;43.118;25.694;2023-04-26T02:59:49;98424.16;;;12.11;95.75
33845;BME280;20145;43.118;25.694;2023-04-26T03:02:15;98426.00;;;12.09;96.25
33845;BME280;20145;43.118;25.694;2023-04-26T03:04:41;98421.75;;;12.06;96.64
33845;BME280;20145;43.118;25.694;2023-04-26T03:07:06;98430.34;;;12.07;96.94
33845;BME280;20145;43.118;25.694;2023-04-26T03:09:32;98431.19;;;12.07;97.08
33845;BME280;20145;43.118;25.694;2023-04-26T03:11:59;98431.28;;;12.05;95.59
33845;BME280;20145;43.118;25.694;2023-04-26T03:14:25;98423.59;;;12.02;95.79
33845;BME280;20145;43.118;25.694;2023-04-26T03:16:51;98424.59;;;11.98;96.54
33845;BME280;20145;43.118;25.694;2023-04-26T03:19:17;98425.59;;;11.94;96.80
33845;BME280;20145;43.118;25.694;2023-04-26T03:21:43;98440.16;;;11.97;96.47
33845;BME280;20145;43.118;25.694;2023-04-26T03:24:09;98440.22;;;11.95;95.51
33845;BME280;20145;43.118;25.694;2023-04-26T03:26:35;98429.06;;;11.93;94.88
33845;BME280;20145;43.118;25.694;2023-04-26T03:29:02;98447.03;;;11.98;95.74
33845;BME280;20145;43.118;25.694;2023-04-26T03:31:28;98451.50;;;11.93;95.52
33845;BME280;20145;43.118;25.694;2023-04-26T03:33:53;98457.75;;;11.86;97.20
33845;BME280;20145;43.118;25.694;2023-04-26T03:36:19;98459.53;;;11.83;97.26
33845;BME280;20145;43.118;25.694;2023-04-26T03:38:45;98457.00;;;11.82;96.32
33845;BME280;20145;43.118;25.694;2023-04-26T03:41:11;98461.63;;;11.72;97.81
33845;BME280;20145;43.118;25.694;2023-04-26T03:43:36;98469.38;;;11.72;97.13
33845;BME280;20145;43.118;25.694;2023-04-26T03:46:03;98472.00;;;11.71;97.91
33845;BME280;20145;43.118;25.694;2023-04-26T03:48:29;98473.53;;;11.76;97.13
33845;BME280;20145;43.118;25.694;2023-04-26T03:50:54;98472.63;;;11.77;97.33
33845;BME280;20145;43.118;25.694;2023-04-26T03:53:20;98460.75;;;11.72;97.63
33845;BME280;20145;43.118;25.694;2023-04-26T03:55:46;98484.41;;;11.88;97.32
33845;BME280;20145;43.118;25.694;2023-04-26T03:58:11;98485.13;;;11.91;96.56
33845;BME280;20145;43.118;25.694;2023-04-26T04:00:37;98491.13;;;11.93;96.69
33845;BME280;20145;43.118;25.694;2023-04-26T04:03:04;98490.97;;;11.98;95.47
33845;BME280;20145;43.118;25.694;2023-04-26T04:05:29;98478.84;;;12.00;95.78
33845;BME280;20145;43.118;25.694;2023-04-26T04:07:55;98485.63;;;12.02;95.66
33845;BME280;20145;43.118;25.694;2023-04-26T04:10:21;98496.94;;;12.00;95.56
33845;BME280;20145;43.118;25.694;2023-04-26T04:12:48;98478.31;;;11.89;96.52
33845;BME280;20145;43.118;25.694;2023-04-26T04:15:14;98502.91;;;12.02;95.84
33845;BME280;20145;43.118;25.694;2023-04-26T04:17:40;98497.59;;;12.07;95.77
33845;BME280;20145;43.118;25.694;2023-04-26T04:20:06;98501.22;;;12.01;96.57
33845;BME280;20145;43.118;25.694;2023-04-26T04:22:32;98508.06;;;12.02;97.00
33845;BME280;20145;43.118;25.694;2023-04-26T04:24:57;98503.22;;;11.91;96.49
33845;BME280;20145;43.118;25.694;2023-04-26T04:27:25;98502.25;;;11.95;95.38
33845;BME280;20145;43.118;25.694;2023-04-26T04:29:51;98502.16;;;11.98;97.24
33845;BME280;20145;43.118;25.694;2023-04-26T04:32:18;98511.56;;;12.01;95.66
33845;BME280;20145;43.118;25.694;2023-04-26T04:34:44;98501.22;;;12.01;95.71
33845;BME280;20145;43.118;25.694;2023-04-26T04:37:10;98506.66;;;12.18;94.58
33845;BME280;20145;43.118;25.694;2023-04-26T04:39:36;98503.63;;;12.32;95.37
33845;BME280;20145;43.118;25.694;2023-04-26T04:42:02;98509.97;;;12.48;94.52
33845;BME280;20145;43.118;25.694;2023-04-26T04:44:28;98518.41;;;12.54;92.47
33845;BME280;20145;43.118;25.694;2023-04-26T04:46:53;98507.22;;;12.78;91.53
33845;BME280;20145;43.118;25.694;2023-04-26T04:49:19;98516.59;;;13.29;88.97
33845;BME280;20145;43.118;25.694;2023-04-26T04:51:45;98515.38;;;13.61;86.99
33845;BME280;20145;43.118;25.694;2023-04-26T04:54:14;98518.22;;;13.77;85.70
33845;BME280;20145;43.118;25.694;2023-04-26T04:56:41;98509.38;;;14.03;82.01
33845;BME280;20145;43.118;25.694;2023-04-26T04:59:06;98512.16;;;14.41;82.61
33845;BME280;20145;43.118;25.694;2023-04-26T05:01:33;98525.06;;;14.84;79.79
33845;BME280;20145;43.118;25.694;2023-04-26T05:04:00;98525.47;;;15.14;76.13
33845;BME280;20145;43.118;25.694;2023-04-26T05:06:26;98521.16;;;15.13;76.08
33845;BME280;20145;43.118;25.694;2023-04-26T05:08:53;98527.22;;;15.32;74.60
33845;BME280;20145;43.118;25.694;2023-04-26T05:11:18;98505.19;;;15.41;73.90
33845;BME280;20145;43.118;25.694;2023-04-26T05:13:45;98503.06;;;15.49;72.15
33845;BME280;20145;43.118;25.694;2023-04-26T05:16:11;98510.00;;;15.49;72.83
33845;BME280;20145;43.118;25.694;2023-04-26T05:18:37;98502.00;;;15.53;72.75
33845;BME280;20145;43.118;25.694;2023-04-26T05:21:03;98495.13;;;15.52;71.77
33845;BME280;20145;43.118;25.694;2023-04-26T05:23:29;98496.50;;;15.59;71.91
33845;BME280;20145;43.118;25.694;2023-04-26T05:25:55;98489.13;;;16.05;72.55
33845;BME280;20145;43.118;25.694;2023-04-26T05:28:21;98487.59;;;16.19;68.70
33845;BME280;20145;43.118;25.694;2023-04-26T05:30:47;98490.00;;;16.74;70.24
33845;BME280;20145;43.118;25.694;2023-04-26T05:33:14;98492.41;;;16.44;67.98
33845;BME280;20145;43.118;25.694;2023-04-26T05:35:40;98494.53;;;16.88;67.96
33845;BME280;20145;43.118;25.694;2023-04-26T05:38:05;98501.44;;;17.05;66.24
33845;BME280;20145;43.118;25.694;2023-04-26T05:40:31;98494.81;;;17.31;66.43
33845;BME280;20145;43.118;25.694;2023-04-26T05:43:15;98508.69;;;16.65;65.83
33845;BME280;20145;43.118;25.694;2023-04-26T05:45:54;98498.38;;;16.46;65.63
33845;BME280;20145;43.118;25.694;2023-04-26T05:48:22;98496.78;;;16.43;68.18
33845;BME280;20145;43.118;25.694;2023-04-26T05:50:49;98501.00;;;16.97;64.93
33845;BME280;20145;43.118;25.694;2023-04-26T05:53:15;98499.13;;;16.83;64.63
33845;BME280;20145;43.118;25.694;2023-04-26T05:55:41;98504.72;;;17.08;64.95
33845;BME280;20145;43.118;25.694;2023-04-26T05:58:07;98513.31;;;17.10;62.89
33845;BME280;20145;43.118;25.694;2023-04-26T06:00:33;98506.97;;;16.99;63.61
33845;BME280;20145;43.118;25.694;2023-04-26T06:02:59;98501.81;;;16.81;64.71
33845;BME280;20145;43.118;25.694;2023-04-26T06:05:24;98499.88;;;16.85;65.91
33845;BME280;20145;43.118;25.694;2023-04-26T06:07:50;98501.34;;;16.90;65.67
33845;BME280;20145;43.118;25.694;2023-04-26T06:10:16;98503.81;;;16.59;63.55
33845;BME280;20145;43.118;25.694;2023-04-26T06:12:41;98505.13;;;16.50;64.31
33845;BME280;20145;43.118;25.694;2023-04-26T06:15:08;98504.03;;;16.71;65.21
33845;BME280;20145;43.118;25.694;2023-04-26T06:17:33;98497.91;;;16.55;63.94
33845;BME280;20145;43.118;25.694;2023-04-26T06:19:59;98502.41;;;16.69;64.99
33845;BME280;20145;43.118;25.694;2023-04-26T06:22:25;98497.97;;;16.54;68.25
33845;BME280;20145;43.118;25.694;2023-04-26T06:24:51;98498.72;;;16.73;65.89
33845;BME280;20145;43.118;25.694;2023-04-26T06:27:16;98497.94;;;16.71;65.40
33845;BME280;20145;43.118;25.694;2023-04-26T06:29:42;98486.94;;;16.66;67.09
33845;BME280;20145;43.118;25.694;2023-04-26T06:32:09;98506.00;;;16.84;64.06
33845;BME280;20145;43.118;25.694;2023-04-26T06:34:35;98497.44;;;16.64;64.96
33845;BME280;20145;43.118;25.694;2023-04-26T06:37:03;98513.00;;;16.66;66.62
33845;BME280;20145;43.118;25.694;2023-04-26T06:39:29;98510.47;;;16.47;66.70
33845;BME280;20145;43.118;25.694;2023-04-26T06:41:54;98509.63;;;16.29;67.66
33845;BME280;20145;43.118;25.694;2023-04-26T06:44:20;98506.66;;;16.19;68.31
33845;BME280;20145;43.118;25.694;2023-04-26T06:46:46;98505.72;;;16.38;66.10
33845;BME280;20145;43.118;25.694;2023-04-26T06:49:12;98495.63;;;16.32;64.88
33845;BME280;20145;43.118;25.694;2023-04-26T06:51:37;98502.13;;;16.23;63.63
33845;BME280;20145;43.118;25.694;2023-04-26T06:54:03;98509.50;;;16.49;66.60
33845;BME280;20145;43.118;25.694;2023-04-26T06:56:29;98510.00;;;16.56;66.28
33845;BME280;20145;43.118;25.694;2023-04-26T06:58:59;98505.41;;;16.79;64.62
33845;BME280;20145;43.118;25.694;2023-04-26T07:01:29;98505.75;;;16.71;62.86
33845;BME280;20145;43.118;25.694;2023-04-26T07:03:58;98513.53;;;17.06;63.66
33845;BME280;20145;43.118;25.694;2023-04-26T07:06:25;98508.44;;;17.20;62.93
33845;BME280;20145;43.118;25.694;2023-04-26T07:08:50;98515.00;;;17.27;60.10
33845;BME280;20145;43.118;25.694;2023-04-26T07:11:16;98501.88;;;17.29;59.01
33845;BME280;20145;43.118;25.694;2023-04-26T07:13:42;98521.81;;;17.30;58.14
33845;BME280;20145;43.118;25.694;2023-04-26T07:16:07;98516.19;;;17.22;58.37
33845;BME280;20145;43.118;25.694;2023-04-26T07:18:33;98514.19;;;17.27;57.11
33845;BME280;20145;43.118;25.694;2023-04-26T07:20:58;98521.50;;;17.36;58.64
33845;BME280;20145;43.118;25.694;2023-04-26T07:23:24;98518.53;;;17.42;57.23
33845;BME280;20145;43.118;25.694;2023-04-26T07:25:50;98515.91;;;17.10;59.54
33845;BME280;20145;43.118;25.694;2023-04-26T07:28:15;98514.06;;;16.62;60.40
33845;BME280;20145;43.118;25.694;2023-04-26T07:30:41;98506.03;;;16.49;60.20
33845;BME280;20145;43.118;25.694;2023-04-26T07:33:06;98506.66;;;16.19;62.15
33845;BME280;20145;43.118;25.694;2023-04-26T07:35:32;98519.66;;;16.19;62.88
33845;BME280;20145;43.118;25.694;2023-04-26T07:38:00;98512.44;;;16.07;62.61
33845;BME280;20145;43.118;25.694;2023-04-26T07:40:25;98515.34;;;16.01;60.99
33845;BME280;20145;43.118;25.694;2023-04-26T07:42:53;98517.44;;;16.29;60.46
33845;BME280;20145;43.118;25.694;2023-04-26T07:45:19;98507.09;;;16.80;59.04
33845;BME280;20145;43.118;25.694;2023-04-26T07:47:47;98518.69;;;17.07;58.40
33845;BME280;20145;43.118;25.694;2023-04-26T07:50:12;98517.69;;;17.26;57.47
33845;BME280;20145;43.118;25.694;2023-04-26T07:52:38;98521.53;;;17.03;59.28
33845;BME280;20145;43.118;25.694;2023-04-26T07:55:04;98527.31;;;16.40;59.84
33845;BME280;20145;43.118;25.694;2023-04-26T07:57:30;98523.47;;;16.12;60.22
33845;BME280;20145;43.118;25.694;2023-04-26T07:59:56;98517.38;;;16.31;59.87
33845;BME280;20145;43.118;25.694;2023-04-26T08:02:22;98524.75;;;16.73;58.96
33845;BME280;20145;43.118;25.694;2023-04-26T08:04:48;98521.25;;;16.74;58.84
33845;BME280;20145;43.118;25.694;2023-04-26T08:07:14;98515.66;;;16.82;57.13
33845;BME280;20145;43.118;25.694;2023-04-26T08:09:40;98523.78;;;16.58;57.05
33845;BME280;20145;43.118;25.694;2023-04-26T08:12:06;98525.84;;;16.51;58.28
33845;BME280;20145;43.118;25.694;2023-04-26T08:14:33;98520.41;;;16.73;56.22
33845;BME280;20145;43.118;25.694;2023-04-26T08:17:00;98508.44;;;16.87;55.01
33845;BME280;20145;43.118;25.694;2023-04-26T08:19:26;98522.00;;;17.27;55.48
33845;BME280;20145;43.118;25.694;2023-04-26T08:21:55;98520.91;;;17.78;54.25
33845;BME280;20145;43.118;25.694;2023-04-26T08:24:21;98522.88;;;17.91;53.51
33845;BME280;20145;43.118;25.694;2023-04-26T08:26:47;98508.13;;;17.74;52.65
33845;BME280;20145;43.118;25.694;2023-04-26T08:29:12;98512.25;;;17.30;53.60
33845;BME280;20145;43.118;25.694;2023-04-26T08:31:39;98514.66;;;17.17;54.63
33845;BME280;20145;43.118;25.694;2023-04-26T08:34:04;98514.41;;;17.54;54.34
33845;BME280;20145;43.118;25.694;2023-04-26T08:36:30;98515.53;;;17.81;54.14
33845;BME280;20145;43.118;25.694;2023-04-26T08:39:00;98512.81;;;17.51;53.20
33845;BME280;20145;43.118;25.694;2023-04-26T08:41:26;98510.09;;;17.05;55.34
33845;BME280;20145;43.118;25.694;2023-04-26T08:43:53;98522.56;;;17.32;54.25
33845;BME280;20145;43.118;25.694;2023-04-26T08:46:20;98519.44;;;17.09;55.67
33845;BME280;20145;43.118;25.694;2023-04-26T08:48:53;98518.81;;;16.88;55.30
33845;BME280;20145;43.118;25.694;2023-04-26T08:51:24;98515.28;;;16.72;56.24
33845;BME280;20145;43.118;25.694;2023-04-26T08:53:52;98508.78;;;16.81;56.29
33845;BME280;20145;43.118;25.694;2023-04-26T08:56:21;98503.16;;;17.22;55.56
33845;BME280;20145;43.118;25.694;2023-04-26T08:58:47;98508.13;;;17.74;53.69
33845;BME280;20145;43.118;25.694;2023-04-26T09:01:14;98509.13;;;18.47;52.55
33845;BME280;20145;43.118;25.694;2023-04-26T09:03:40;98515.06;;;18.65;50.66
33845;BME280;20145;43.118;25.694;2023-04-26T09:06:06;98518.31;;;18.24;51.37
33845;BME280;20145;43.118;25.694;2023-04-26T09:08:34;98514.56;;;18.14;50.42
33845;BME280;20145;43.118;25.694;2023-04-26T09:11:02;98510.41;;;17.96;49.74
33845;BME280;20145;43.118;25.694;2023-04-26T09:13:28;98503.31;;;17.66;50.86
33845;BME280;20145;43.118;25.694;2023-04-26T09:15:54;98513.59;;;17.69;50.84
33845;BME280;20145;43.118;25.694;2023-04-26T09:18:21;98497.63;;;17.44;50.51
33845;BME280;20145;43.118;25.694;2023-04-26T09:23:28;98510.28;;;18.13;51.07
33845;BME280;20145;43.118;25.694;2023-04-26T09:25:54;98518.72;;;18.33;47.29
33845;BME280;20145;43.118;25.694;2023-04-26T09:28:22;98511.19;;;18.57;46.07
33845;BME280;20145;43.118;25.694;2023-04-26T09:30:48;98510.94;;;18.61;47.82
33845;BME280;20145;43.118;25.694;2023-04-26T09:33:14;98505.63;;;18.48;49.24
33845;BME280;20145;43.118;25.694;2023-04-26T09:35:41;98506.06;;;18.55;47.05
33845;BME280;20145;43.118;25.694;2023-04-26T09:40:39;98496.91;;;18.48;46.76
33845;BME280;20145;43.118;25.694;2023-04-26T09:43:16;98494.84;;;18.39;48.53
33845;BME280;20145;43.118;25.694;2023-04-26T09:45:44;98498.31;;;18.09;48.30
33845;BME280;20145;43.118;25.694;2023-04-26T09:48:31;98496.88;;;18.34;49.15
33845;BME280;20145;43.118;25.694;2023-04-26T09:51:08;98496.34;;;17.82;46.14
33845;BME280;20145;43.118;25.694;2023-04-26T09:53:36;98488.63;;;18.11;47.10
33845;BME280;20145;43.118;25.694;2023-04-26T09:58:39;98487.31;;;17.72;45.61
33845;BME280;20145;43.118;25.694;2023-04-26T10:01:22;98492.22;;;17.78;45.82
33845;BME280;20145;43.118;25.694;2023-04-26T10:03:48;98497.75;;;17.72;45.64
33845;BME280;20145;43.118;25.694;2023-04-26T10:06:16;98474.94;;;17.76;45.78
33845;BME280;20145;43.118;25.694;2023-04-26T10:08:42;98486.06;;;17.48;46.04
33845;BME280;20145;43.118;25.694;2023-04-26T10:11:08;98474.97;;;17.60;44.80
33845;BME280;20145;43.118;25.694;2023-04-26T10:13:38;98488.84;;;17.76;44.74
33845;BME280;20145;43.118;25.694;2023-04-26T10:16:04;98481.22;;;18.03;45.15
33845;BME280;20145;43.118;25.694;2023-04-26T10:18:31;98479.25;;;18.37;44.83
33845;BME280;20145;43.118;25.694;2023-04-26T10:21:04;98470.59;;;18.37;43.18
33845;BME280;20145;43.118;25.694;2023-04-26T10:23:31;98483.31;;;18.13;42.27
33845;BME280;20145;43.118;25.694;2023-04-26T10:25:58;98480.69;;;17.82;43.73
33845;BME280;20145;43.118;25.694;2023-04-26T10:31:14;98485.31;;;17.77;50.94
33845;BME280;20145;43.118;25.694;2023-04-26T10:33:40;98469.84;;;17.58;50.27
33845;BME280;20145;43.118;25.694;2023-04-26T10:36:11;98489.63;;;17.47;49.80
33845;BME280;20145;43.118;25.694;2023-04-26T10:39:16;98484.56;;;17.44;49.72
33845;BME280;20145;43.118;25.694;2023-04-26T10:41:42;98477.91;;;17.54;51.44
33845;BME280;20145;43.118;25.694;2023-04-26T10:44:39;98481.88;;;17.61;49.09
33845;BME280;20145;43.118;25.694;2023-04-26T10:47:10;98488.34;;;17.54;49.33
33845;BME280;20145;43.118;25.694;2023-04-26T10:49:48;98478.78;;;17.54;49.85
33845;BME280;20145;43.118;25.694;2023-04-26T10:52:17;98477.47;;;17.61;50.24
33845;BME280;20145;43.118;25.694;2023-04-26T10:54:59;98458.69;;;17.71;49.71
33845;BME280;20145;43.118;25.694;2023-04-26T10:57:50;98470.59;;;18.06;49.26
33845;BME280;20145;43.118;25.694;2023-04-26T11:00:24;98481.84;;;17.93;48.89
33845;BME280;20145;43.118;25.694;2023-04-26T11:02:54;98475.66;;;17.79;48.03
33845;BME280;20145;43.118;25.694;2023-04-26T11:08:05;98470.78;;;18.03;49.16
33845;BME280;20145;43.118;25.694;2023-04-26T11:10:31;98459.16;;;18.09;47.25
33845;BME280;20145;43.118;25.694;2023-04-26T11:13:01;98480.44;;;18.17;48.73
33845;BME280;20145;43.118;25.694;2023-04-26T11:15:30;98478.53;;;18.05;47.97
33845;BME280;20145;43.118;25.694;2023-04-26T11:17:56;98472.53;;;18.19;47.79
33845;BME280;20145;43.118;25.694;2023-04-26T11:20:22;98467.88;;;18.24;47.88
33845;BME280;20145;43.118;25.694;2023-04-26T11:22:47;98480.78;;;18.41;47.96
33845;BME280;20145;43.118;25.694;2023-04-26T11:25:13;98492.47;;;18.20;48.53
33845;BME280;20145;43.118;25.694;2023-04-26T11:27:42;98478.53;;;18.05;47.47
33845;BME280;20145;43.118;25.694;2023-04-26T11:30:08;98482.13;;;18.18;47.88
33845;BME280;20145;43.118;25.694;2023-04-26T11:32:34;98466.31;;;18.05;48.87
33845;BME280;20145;43.118;25.694;2023-04-26T11:34:59;98487.78;;;18.11;49.60
33845;BME280;20145;43.118;25.694;2023-04-26T11:37:25;98481.63;;;18.12;48.17
33845;BME280;20145;43.118;25.694;2023-04-26T11:39:51;98487.16;;;18.21;48.97
33845;BME280;20145;43.118;25.694;2023-04-26T11:42:17;98471.34;;;18.39;46.77
33845;BME280;20145;43.118;25.694;2023-04-26T11:44:42;98485.72;;;18.46;46.79
33845;BME280;20145;43.118;25.694;2023-04-26T11:47:08;98480.59;;;18.59;44.42
33845;BME280;20145;43.118;25.694;2023-04-26T11:49:37;98493.00;;;18.55;45.42
33845;BME280;20145;43.118;25.694;2023-04-26T11:52:04;98477.19;;;18.28;47.59
33845;BME280;20145;43.118;25.694;2023-04-26T11:54:32;98486.84;;;18.12;47.32
33845;BME280;20145;43.118;25.694;2023-04-26T11:56:58;98478.41;;;18.37;46.60
33845;BME280;20145;43.118;25.694;2023-04-26T11:59:28;98484.72;;;18.63;46.76
33845;BME280;20145;43.118;25.694;2023-04-26T12:01:55;98480.56;;;18.30;47.99
33845;BME280;20145;43.118;25.694;2023-04-26T12:04:29;98478.53;;;18.35;47.30
33845;BME280;20145;43.118;25.694;2023-04-26T12:06:56;98488.41;;;18.30;48.25
33845;BME280;20145;43.118;25.694;2023-04-26T12:09:23;98480.69;;;18.43;46.89
33845;BME280;20145;43.118;25.694;2023-04-26T12:12:02;98481.16;;;18.49;46.98
33845;BME280;20145;43.118;25.694;2023-04-26T12:16:59;98488.97;;;18.94;46.86
33845;BME280;20145;43.118;25.694;2023-04-26T12:19:26;98482.19;;;18.61;45.32
33845;BME280;20145;43.118;25.694;2023-04-26T12:21:52;98483.97;;;18.46;45.98
33845;BME280;20145;43.118;25.694;2023-04-26T12:24:23;98480.00;;;18.39;46.37
33845;BME280;20145;43.118;25.694;2023-04-26T12:26:50;98481.28;;;18.62;45.59
33845;BME280;20145;43.118;25.694;2023-04-26T12:29:16;98483.66;;;18.51;46.64
33845;BME280;20145;43.118;25.694;2023-04-26T12:31:42;98484.03;;;18.45;47.27
33845;BME280;20145;43.118;25.694;2023-04-26T12:34:07;98482.81;;;18.50;47.85
33845;BME280;20145;43.118;25.694;2023-04-26T12:36:35;98483.50;;;18.54;46.93
33845;BME280;20145;43.118;25.694;2023-04-26T12:39:00;98487.25;;;18.79;47.31
33845;BME280;20145;43.118;25.694;2023-04-26T12:41:29;98494.00;;;18.97;47.42
33845;BME280;20145;43.118;25.694;2023-04-26T12:43:56;98479.97;;;18.98;48.17
33845;BME280;20145;43.118;25.694;2023-04-26T12:46:21;98482.50;;;19.14;47.60
33845;BME280;20145;43.118;25.694;2023-04-26T12:48:47;98478.78;;;18.89;47.97
33845;BME280;20145;43.118;25.694;2023-04-26T12:51:13;98473.34;;;18.64;47.31
33845;BME280;20145;43.118;25.694;2023-04-26T12:53:39;98481.22;;;18.48;48.00
33845;BME280;20145;43.118;25.694;2023-04-26T12:56:04;98478.41;;;18.37;48.00
33845;BME280;20145;43.118;25.694;2023-04-26T12:58:31;98485.41;;;18.36;48.01
33845;BME280;20145;43.118;25.694;2023-04-26T13:00:57;98479.03;;;18.26;47.34
33845;BME280;20145;43.118;25.694;2023-04-26T13:03:22;98483.75;;;18.05;47.07